Roanoke, Indiana
Current Conditions -  °F | °C
As of 12:55 PM on Friday 24 Oct 2014 (Local Time) from KHHG Reporting Station
Overcast Overcast  
Wind Chill: 57°   Ceiling: 2600
Heat Index: 57°   Visibility: 10mi
Dew Point: 48°   Wind: 6mph
Humidity: 73%   Direction: 260°W
Pressure: 30.08"   Gusts: NA
Location:  40.96°N, 85.37°W
Report Text: KHHG 241655Z AUTO 26005KT 10SM OVC026 14/09 A3008 RMK AO2 T01370089
Loading
Personal Weather Stations






























Interactive Weather Map
Tropical Storm Tracking
New forecast layout! Learn more

10-Day Weather Forecast

Advertisements
Track Severe Weather on mobile